Time;durP1;ratioP1;P1;durP2;ratioP2;P2;SDS_P1;SDS_P2;PMS_P1;PMS_P2;Temp;Humidity;BMP_temperature;BMP_pressure;BME280_temperature;BME280_humidity;BME280_pressure;Samples;Min_cycle;Max_cycle;Signal;HPM_P1;HPM_P2
2022/11/17 00:01:54;;;;;;;8.17;4.30;;;;;;;9.01;100.00;98779.16;5076462;28;20082;-35
2022/11/17 00:04:20;;;;;;;6.60;4.00;;;;;;;9.15;100.00;98792.91;5076385;28;20033;-35
2022/11/17 00:06:45;;;;;;;8.38;4.05;;;;;;;9.16;100.00;98789.94;5075312;28;20032;-35
2022/11/17 00:09:16;;;;;;;8.70;4.70;;;;;;;9.08;100.00;98768.09;5076622;28;20451;-35
2022/11/17 00:14:32;;;;;;;9.15;4.47;;;;;;;9.16;100.00;98781.84;5076343;28;20043;-35
2022/11/17 00:16:59;;;;;;;7.25;3.85;;;;;;;9.16;100.00;98775.66;5076637;28;20031;-34
2022/11/17 00:22:08;;;;;;;9.50;4.30;;;;;;;9.19;100.00;98769.72;5075834;28;20415;-35
2022/11/17 00:24:34;;;;;;;7.60;4.30;;;;;;;9.17;100.00;98755.69;5076772;28;20029;-34
2022/11/17 00:27:02;;;;;;;8.57;4.27;;;;;;;9.22;100.00;98763.75;5076648;28;20032;-35
2022/11/17 00:29:28;;;;;;;7.38;3.88;;;;;;;9.20;100.00;98742.47;5076168;28;20373;-34
2022/11/17 00:34:37;;;;;;;7.50;4.03;;;;;;;9.24;100.00;98745.44;5075830;28;20043;-35
2022/11/17 00:37:05;;;;;;;6.68;3.38;;;;;;;9.25;100.00;98747.06;5075982;28;20107;-34
2022/11/17 00:39:31;;;;;;;7.55;4.13;;;;;;;9.22;100.00;98726.84;5075689;28;20107;-35
2022/11/17 00:41:57;;;;;;;;;;;;;;;9.28;100.00;98719.53;5075886;28;20460;-34
2022/11/17 00:44:22;;;;;;;9.02;4.15;;;;;;;9.17;100.00;98690.97;5076381;28;19915;-35
2022/11/17 00:46:48;;;;;;;6.47;3.55;;;;;;;9.23;100.00;98701.47;5075331;28;20443;-35
2022/11/17 00:49:13;;;;;;;8.45;4.13;;;;;;;9.26;100.00;98705.50;5075521;28;20100;-35
2022/11/17 00:51:39;;;;;;;4.35;3.25;;;;;;;9.22;100.00;98690.94;5075557;28;20067;-34
2022/11/17 00:54:06;;;;;;;6.60;3.50;;;;;;;9.25;100.00;98696.63;5074820;28;20445;-35
2022/11/17 00:56:32;;;;;;;8.40;3.97;;;;;;;9.25;100.00;98698.50;5075783;28;20031;-35
2022/11/17 00:58:58;;;;;;;6.15;3.60;;;;;;;9.24;100.00;98692.31;5075864;28;20350;-35
2022/11/17 01:01:23;;;;;;;7.57;3.85;;;;;;;9.25;100.00;98685.03;5075362;28;20098;-35
2022/11/17 01:03:49;;;;;;;5.68;3.60;;;;;;;9.24;100.00;98680.72;5075480;28;20042;-35
2022/11/17 01:06:17;;;;;;;7.47;3.43;;;;;;;9.26;100.00;98673.94;5075156;28;20040;-34
2022/11/17 01:08:43;;;;;;;6.93;3.40;;;;;;;9.24;100.00;98665.34;5075640;28;20461;-35
2022/11/17 01:11:14;;;;;;;6.60;3.55;;;;;;;9.27;100.00;98655.88;5074424;28;20035;-35
2022/11/17 01:13:41;;;;;;;6.93;3.65;;;;;;;9.24;100.00;98670.72;5075016;28;20029;-35
2022/11/17 01:16:10;;;;;;;7.18;3.30;;;;;;;9.28;100.00;98681.78;5075423;28;20070;-34
2022/11/17 01:18:37;;;;;;;6.28;3.28;;;;;;;9.29;100.00;98672.59;5074284;28;20048;-34
2022/11/17 01:21:11;;;;;;;4.97;2.95;;;;;;;9.23;100.00;98663.72;5074871;28;20361;-34
2022/11/17 01:23:38;;;;;;;7.32;3.47;;;;;;;9.24;100.00;98648.34;5074605;28;20437;-35
2022/11/17 01:26:10;;;;;;;5.13;2.90;;;;;;;9.22;100.00;98642.41;5074819;28;20377;-35
2022/11/17 01:28:35;;;;;;;3.95;2.97;;;;;;;9.28;100.00;98646.72;5075238;28;20040;-35
2022/11/17 01:31:06;;;;;;;6.68;3.10;;;;;;;9.31;100.00;98654.25;5074970;28;20421;-35
2022/11/17 01:33:32;;;;;;;4.75;2.42;;;;;;;9.35;100.00;98649.13;5072881;28;20113;-35
2022/11/17 01:36:03;;;;;;;7.10;3.00;;;;;;;9.36;100.00;98640.75;5074533;28;20468;-35
2022/11/17 01:38:29;;;;;;;4.10;2.33;;;;;;;9.30;100.00;98614.88;5075095;28;20032;-35
2022/11/17 01:40:59;;;;;;;3.08;1.92;;;;;;;9.38;100.00;98640.47;5074513;28;20388;-35
2022/11/17 01:43:46;;;;;;;3.35;1.73;;;;;;;9.33;100.00;98625.13;5074648;28;20028;-35
2022/11/17 01:46:19;;;;;;;3.65;1.60;;;;;;;9.41;100.00;98627.22;5074455;28;20024;-35
2022/11/17 01:48:46;;;;;;;3.28;1.80;;;;;;;9.35;100.00;98601.38;5074809;28;20025;-35
2022/11/17 01:51:15;;;;;;;3.95;2.03;;;;;;;9.42;100.00;98612.69;5075031;28;20032;-35
2022/11/17 01:53:43;;;;;;;4.07;1.77;;;;;;;9.45;100.00;98605.91;5074951;28;20085;-35
2022/11/17 01:56:14;;;;;;;3.45;1.42;;;;;;;9.49;100.00;98605.06;5074108;28;20028;-35
2022/11/17 01:58:47;;;;;;;2.75;1.17;;;;;;;9.44;100.00;98586.22;5074218;28;20029;-35
2022/11/17 02:01:13;;;;;;;2.65;1.40;;;;;;;9.55;100.00;98605.84;5074434;28;20127;-35
2022/11/17 02:03:40;;;;;;;2.93;1.37;;;;;;;9.58;100.00;98615.28;5074558;28;20482;-35
2022/11/17 02:06:10;;;;;;;3.55;1.60;;;;;;;9.59;100.00;98619.59;5073935;28;20025;-35
2022/11/17 02:08:38;;;;;;;2.63;1.30;;;;;;;9.58;100.00;98605.31;5074572;28;20032;-35
2022/11/17 02:11:10;;;;;;;4.72;1.58;;;;;;;9.57;100.00;98586.69;5073980;28;20086;-34
2022/11/17 02:13:36;;;;;;;3.58;1.27;;;;;;;9.49;100.00;98564.59;5073998;28;20063;-34
2022/11/17 02:16:01;;;;;;;3.38;1.30;;;;;;;9.51;100.00;98577.81;5073878;28;20047;-35
2022/11/17 02:18:27;;;;;;;3.13;1.47;;;;;;;9.60;100.00;98599.63;5074115;28;20032;-35
2022/11/17 02:21:04;;;;;;;3.83;1.73;;;;;;;9.64;100.00;98604.19;5073748;28;20107;-35
2022/11/17 02:24:00;;;;;;;3.42;1.30;;;;;;;9.65;100.00;98610.38;5073938;28;20259;-35
2022/11/17 02:26:47;;;;;;;2.33;1.40;;;;;;;9.66;100.00;98595.78;5073756;28;20055;-35
2022/11/17 02:29:28;;;;;;;2.75;1.20;;;;;;;9.67;100.00;98603.63;5074205;28;20107;-35
2022/11/17 02:32:16;;;;;;;4.15;1.20;;;;;;;9.67;100.00;98606.34;5073644;28;20028;-34
2022/11/17 02:34:53;;;;;;;3.70;1.27;;;;;;;9.68;100.00;98605.25;5073955;28;20119;-34
2022/11/17 02:37:48;;;;;;;2.95;1.10;;;;;;;9.67;100.00;98598.25;5073490;28;20068;-35
2022/11/17 02:40:24;;;;;;;2.85;1.00;;;;;;;9.64;100.00;98588.00;5073416;28;20032;-35
2022/11/17 02:45:56;;;;;;;4.38;1.00;;;;;;;9.68;100.00;98574.75;5073081;28;20063;-35
2022/11/17 02:48:45;;;;;;;1.50;0.90;;;;;;;9.66;100.00;98552.63;5074153;28;20075;-35
2022/11/17 02:51:19;;;;;;;2.38;1.00;;;;;;;9.70;100.00;98564.47;5073309;28;20036;-35
2022/11/17 02:53:45;;;;;;;2.58;1.20;;;;;;;9.65;100.00;98546.41;5073397;28;20115;-35
2022/11/17 02:56:10;;;;;;;2.38;1.23;;;;;;;9.71;100.00;98549.88;5072896;28;20094;-34
2022/11/17 02:58:36;;;;;;;2.70;1.00;;;;;;;9.73;100.00;98534.22;5073267;28;20411;-35
2022/11/17 03:01:36;;;;;;;4.27;1.03;;;;;;;9.76;100.00;98526.38;5073050;28;20388;-34
2022/11/17 03:04:27;;;;;;;3.30;1.00;;;;;;;9.68;100.00;98509.97;5072820;28;20028;-35
2022/11/17 03:07:08;;;;;;;2.05;0.90;;;;;;;9.74;100.00;98508.84;5073138;28;20035;-34
2022/11/17 03:09:41;;;;;;;1.00;0.70;;;;;;;9.74;100.00;98500.75;5073065;28;20059;-34
2022/11/17 03:12:15;;;;;;;1.63;0.85;;;;;;;9.67;100.00;98490.28;5073314;28;20020;-34
2022/11/17 03:14:47;;;;;;;2.00;1.02;;;;;;;9.73;100.00;98504.53;5072890;28;20131;-35
2022/11/17 03:17:27;;;;;;;2.80;1.10;;;;;;;9.71;100.00;98494.03;5073202;28;20031;-35
2022/11/17 03:20:03;;;;;;;2.40;0.88;;;;;;;9.72;100.00;98508.34;5073650;28;20025;-35
2022/11/17 03:22:46;;;;;;;2.00;0.80;;;;;;;9.68;100.00;98485.69;5072990;28;20024;-35
2022/11/17 03:25:17;;;;;;;2.47;1.55;;;;;;;9.62;100.00;98478.75;5072867;28;20028;-34
2022/11/17 03:27:56;;;;;;;1.50;0.90;;;;;;;9.60;100.00;98478.19;5073215;28;20140;-35
2022/11/17 03:30:23;;;;;;;2.70;1.10;;;;;;;9.58;100.00;98481.19;5072944;28;20056;-34
2022/11/17 03:32:54;;;;;;;2.17;0.98;;;;;;;9.57;100.00;98474.19;5073584;28;20435;-35
2022/11/17 03:35:26;;;;;;;1.55;0.70;;;;;;;9.52;100.00;98466.94;5074479;28;20028;-35
2022/11/17 03:37:56;;;;;;;2.10;0.77;;;;;;;9.51;100.00;98467.19;5077320;28;20381;-35
2022/11/17 03:40:26;;;;;;;1.70;0.98;;;;;;;9.47;100.00;98463.47;5077274;28;20124;-34
2022/11/17 03:42:55;;;;;;;1.30;0.60;;;;;;;9.51;100.00;98462.59;5076956;28;20032;-35
2022/11/17 03:45:28;;;;;;;1.67;0.70;;;;;;;9.50;100.00;98463.69;5076698;28;20039;-34
2022/11/17 03:48:26;;;;;;;2.03;0.50;;;;;;;9.51;100.00;98468.00;5076890;28;20107;-35
2022/11/17 03:51:05;;;;;;;2.05;0.93;;;;;;;9.41;100.00;98451.91;5071662;28;20047;-35
2022/11/17 03:53:32;;;;;;;1.75;0.50;;;;;;;9.46;100.00;98461.84;5075324;28;20040;-35
2022/11/17 03:56:34;;;;;;;1.75;0.43;;;;;;;9.41;100.00;98454.59;5076956;28;20055;-35
2022/11/17 03:59:05;;;;;;;3.22;0.63;;;;;;;9.42;100.00;98450.81;5076755;28;20021;-35
2022/11/17 04:01:32;;;;;;;0.95;0.40;;;;;;;9.45;100.00;98447.56;5075459;28;20153;-35
2022/11/17 04:03:58;;;;;;;1.58;0.50;;;;;;;9.45;100.00;98438.66;5076907;28;20035;-34
2022/11/17 04:06:24;;;;;;;1.25;0.60;;;;;;;9.45;100.00;98439.47;5076123;28;20102;-34
2022/11/17 04:08:49;;;;;;;1.20;0.60;;;;;;;9.48;100.00;98432.72;5076601;28;20037;-35
2022/11/17 04:16:42;;;;;;;1.58;0.60;;;;;;;9.60;100.00;98424.22;5076677;28;20544;-35
2022/11/17 04:19:07;;;;;;;2.40;0.88;;;;;;;9.64;100.00;98431.47;5076678;28;20099;-35
2022/11/17 04:21:33;;;;;;;1.73;1.00;;;;;;;9.65;100.00;98430.38;5076041;28;20055;-34
2022/11/17 04:23:58;;;;;;;1.43;1.10;;;;;;;9.68;100.00;98429.03;5076517;28;20074;-35
2022/11/17 04:29:08;;;;;;;1.45;1.30;;;;;;;9.61;100.00;98405.06;5076187;28;20035;-34
2022/11/17 04:31:33;;;;;;;3.13;1.33;;;;;;;9.72;100.00;98435.47;5075590;28;20369;-35
2022/11/17 04:34:03;;;;;;;2.53;1.00;;;;;;;9.70;100.00;98416.03;5075488;28;20070;-35
2022/11/17 04:36:34;;;;;;;1.90;0.90;;;;;;;9.72;100.00;98416.59;5075824;28;20044;-35
2022/11/17 04:39:00;;;;;;;1.52;0.80;;;;;;;9.73;100.00;98418.19;5075810;28;20035;-35
2022/11/17 04:44:12;;;;;;;2.05;1.00;;;;;;;9.70;100.00;98424.13;5076170;28;20051;-35
2022/11/17 04:46:39;;;;;;;1.90;0.80;;;;;;;9.70;100.00;98416.03;5075361;28;20058;-35
2022/11/17 04:49:05;;;;;;;0.98;0.70;;;;;;;9.69;100.00;98406.34;5076101;28;20364;-35
2022/11/17 04:51:32;;;;;;;2.30;0.80;;;;;;;9.69;100.00;98399.06;5075545;28;20059;-35
2022/11/17 04:53:58;;;;;;;1.85;0.70;;;;;;;9.65;100.00;98381.00;5075338;28;20392;-34
2022/11/17 04:56:25;;;;;;;1.67;0.80;;;;;;;9.58;100.00;98361.66;5075696;28;20058;-33
2022/11/17 04:58:50;;;;;;;1.85;0.80;;;;;;;9.65;100.00;98394.50;5075543;28;20033;-34
2022/11/17 05:01:17;;;;;;;1.77;0.90;;;;;;;9.62;100.00;98385.09;5075942;28;20059;-34
2022/11/17 05:03:42;;;;;;;2.05;0.80;;;;;;;9.56;100.00;98370.03;5075779;28;20036;-33
2022/11/17 05:06:13;;;;;;;2.50;0.90;;;;;;;9.63;100.00;98383.19;5075350;28;20036;-34
2022/11/17 05:08:39;;;;;;;2.22;0.90;;;;;;;9.54;100.00;98364.94;5074734;28;20361;-34
2022/11/17 05:13:50;;;;;;;3.80;1.02;;;;;;;9.58;100.00;98384.06;5074904;28;20089;-33
2022/11/17 05:19:02;;;;;;;2.45;0.90;;;;;;;9.58;100.00;98385.94;5075379;28;20039;-34
2022/11/17 05:21:28;;;;;;;2.75;1.10;;;;;;;9.54;100.00;98383.81;5075479;28;20048;-35
2022/11/17 05:23:54;;;;;;;2.50;0.85;;;;;;;9.58;100.00;98384.06;5074984;28;20083;-35
2022/11/17 05:26:22;;;;;;;3.58;1.10;;;;;;;9.58;100.00;98402.13;5074903;28;20033;-35
2022/11/17 05:28:47;;;;;;;5.60;1.48;;;;;;;9.49;100.00;98394.66;5075668;28;20033;-35
2022/11/17 05:31:13;;;;;;;4.95;1.60;;;;;;;9.57;100.00;98411.31;5074761;28;20032;-35
2022/11/17 05:33:39;;;;;;;3.63;1.10;;;;;;;9.61;100.00;98415.84;5074998;28;20130;-34
2022/11/17 05:36:05;;;;;;;3.50;1.00;;;;;;;9.64;100.00;98417.19;5075514;28;20064;-34
2022/11/17 05:38:30;;;;;;;3.20;1.08;;;;;;;9.62;100.00;98412.09;5075046;28;20111;-33
2022/11/17 05:40:56;;;;;;;3.65;1.25;;;;;;;9.65;100.00;98414.19;5074276;28;20024;-33
2022/11/17 05:43:21;;;;;;;3.10;0.90;;;;;;;9.65;100.00;98411.50;5074538;28;20028;-34
2022/11/17 05:45:47;;;;;;;5.30;1.10;;;;;;;9.67;100.00;98420.13;5074505;28;20051;-35
2022/11/17 05:48:12;;;;;;;2.78;1.00;;;;;;;9.69;100.00;98411.75;5075257;28;20055;-35
2022/11/17 05:50:38;;;;;;;3.45;0.95;;;;;;;9.70;100.00;98414.16;5074383;28;20029;-35
2022/11/17 05:53:03;;;;;;;6.03;1.13;;;;;;;9.59;100.00;98406.44;5074400;28;20365;-35
2022/11/17 05:55:29;;;;;;;4.93;1.20;;;;;;;9.70;100.00;98422.25;5074101;28;20029;-35
2022/11/17 05:58:00;;;;;;;6.40;1.55;;;;;;;9.73;100.00;98423.59;5074174;28;20036;-35
2022/11/17 06:00:26;;;;;;;3.10;1.00;;;;;;;9.70;100.00;98424.13;5074434;28;20082;-35
2022/11/17 06:02:58;;;;;;;4.22;1.05;;;;;;;9.68;100.00;98424.44;5074238;28;20051;-33
2022/11/17 06:05:24;;;;;;;5.50;1.25;;;;;;;9.74;100.00;98425.19;5074640;28;20025;-33
2022/11/17 06:07:53;;;;;;;3.65;1.25;;;;;;;9.74;100.00;98430.59;5073875;28;20036;-33
2022/11/17 06:10:19;;;;;;;4.93;1.30;;;;;;;9.73;100.00;98424.38;5073929;28;20058;-33
2022/11/17 06:12:44;;;;;;;6.57;1.52;;;;;;;9.73;100.00;98437.06;5073985;28;20062;-33
2022/11/17 06:15:10;;;;;;;4.07;1.40;;;;;;;9.72;100.00;98436.28;5074476;28;20064;-35
2022/11/17 06:17:41;;;;;;;5.43;1.27;;;;;;;9.73;100.00;98440.56;5074528;28;20132;-33
2022/11/17 06:20:18;;;;;;;9.15;1.75;;;;;;;9.73;100.00;98445.16;5074171;28;20100;-33
2022/11/17 06:22:45;;;;;;;7.18;1.65;;;;;;;9.73;100.00;98439.78;5074282;28;20024;-33
2022/11/17 06:25:10;;;;;;;7.75;1.77;;;;;;;9.75;100.00;98451.06;5073707;28;20028;-33
2022/11/17 06:27:37;;;;;;;7.07;1.83;;;;;;;9.74;100.00;98446.78;5073699;28;20039;-33
2022/11/17 06:30:05;;;;;;;7.70;1.42;;;;;;;9.75;100.00;98459.19;5073906;28;20384;-35
2022/11/17 06:32:33;;;;;;;9.00;1.50;;;;;;;9.74;100.00;98452.19;5072246;28;20037;-36
2022/11/17 06:34:59;;;;;;;7.40;1.85;;;;;;;9.73;100.00;98456.78;5073705;28;20453;-33
2022/11/17 06:37:25;;;;;;;5.60;1.48;;;;;;;9.73;100.00;98453.28;5073919;28;20111;-33
2022/11/17 06:39:50;;;;;;;7.83;1.40;;;;;;;9.72;100.00;98465.97;5074099;28;20046;-34
2022/11/17 06:42:15;;;;;;;8.43;1.67;;;;;;;9.70;100.00;98464.63;5071996;28;20255;-34
2022/11/17 06:44:41;;;;;;;5.13;1.37;;;;;;;9.71;100.00;98474.31;5073405;28;20031;-34
2022/11/17 06:47:06;;;;;;;6.57;1.40;;;;;;;9.69;100.00;98473.81;5072990;28;20031;-33
2022/11/17 06:49:31;;;;;;;6.17;1.00;;;;;;;9.68;100.00;98469.50;5072496;28;20044;-34
2022/11/17 06:51:57;;;;;;;5.73;1.23;;;;;;;9.65;100.00;98481.66;5073631;28;20154;-34
2022/11/17 06:54:22;;;;;;;5.40;1.10;;;;;;;9.65;100.00;98480.84;5073509;28;20029;-33
2022/11/17 06:56:49;;;;;;;6.93;1.17;;;;;;;9.64;100.00;98490.03;5073758;28;20024;-34
2022/11/17 06:59:15;;;;;;;5.95;0.90;;;;;;;9.55;100.00;98482.53;5074016;28;20025;-33
2022/11/17 07:01:42;;;;;;;3.88;1.20;;;;;;;9.51;100.00;98491.47;5073786;28;20075;-34
2022/11/17 07:04:07;;;;;;;;;;;;;;;9.60;100.00;98499.78;5073473;28;20064;-34
2022/11/17 07:06:36;;;;;;;5.25;0.90;;;;;;;9.53;100.00;98500.13;5073139;28;20352;-34
2022/11/17 07:09:01;;;;;;;7.50;1.27;;;;;;;9.51;100.00;98491.47;5073821;28;20078;-34
2022/11/17 07:11:26;;;;;;;3.38;0.90;;;;;;;9.49;100.00;98489.06;5073175;28;20029;-34
2022/11/17 07:13:52;;;;;;;4.00;1.10;;;;;;;9.48;100.00;98502.84;5073666;28;20035;-34
2022/11/17 07:16:20;;;;;;;5.97;1.20;;;;;;;9.39;100.00;98501.81;5073109;28;20107;-35
2022/11/17 07:18:46;;;;;;;4.80;1.17;;;;;;;9.41;100.00;98497.75;5073790;28;20397;-34
2022/11/17 07:21:13;;;;;;;5.57;1.10;;;;;;;9.42;100.00;98510.19;5072969;28;20024;-35
2022/11/17 07:23:40;;;;;;;3.85;1.08;;;;;;;9.42;100.00;98509.34;5073244;28;20028;-35
2022/11/17 07:26:05;;;;;;;4.57;1.45;;;;;;;9.40;100.00;98504.22;5072921;28;20040;-35
2022/11/17 07:28:32;;;;;;;2.85;0.90;;;;;;;9.43;100.00;98514.47;5072749;28;20032;-35
2022/11/17 07:31:01;;;;;;;3.03;0.68;;;;;;;9.33;100.00;98500.25;5072967;28;20031;-35
2022/11/17 07:33:27;;;;;;;4.80;0.95;;;;;;;9.37;100.00;98512.06;5072253;28;20449;-35
2022/11/17 07:35:53;;;;;;;3.00;0.90;;;;;;;9.39;100.00;98520.72;5072557;28;20037;-35
2022/11/17 07:38:19;;;;;;;3.30;0.95;;;;;;;9.37;100.00;98522.88;5073121;28;20339;-35
2022/11/17 07:40:44;;;;;;;4.00;0.93;;;;;;;9.27;100.00;98508.38;5072918;28;20060;-35
2022/11/17 07:43:09;;;;;;;1.60;0.73;;;;;;;9.31;100.00;98522.09;5073151;28;20455;-35
2022/11/17 07:45:35;;;;;;;3.53;1.00;;;;;;;9.28;100.00;98520.78;5073576;28;20024;-35
2022/11/17 07:48:02;;;;;;;3.38;0.82;;;;;;;9.34;100.00;98531.53;5072777;28;20032;-35
2022/11/17 07:50:28;;;;;;;1.88;0.60;;;;;;;9.32;100.00;98537.22;5072745;28;20032;-35
2022/11/17 07:52:55;;;;;;;4.80;0.80;;;;;;;9.23;100.00;98531.59;5073457;28;20047;-35
2022/11/17 07:55:22;;;;;;;2.08;0.80;;;;;;;9.29;100.00;98543.97;5072293;28;20489;-35
2022/11/17 07:58:01;;;;;;;2.92;0.70;;;;;;;9.28;100.00;98546.94;5072950;28;20381;-35
2022/11/17 08:00:29;;;;;;;2.05;0.70;;;;;;;9.25;100.00;98555.56;5072528;28;20076;-35
2022/11/17 08:02:58;;;;;;;2.95;0.77;;;;;;;9.26;100.00;98552.59;5073487;28;20046;-35
2022/11/17 08:05:24;;;;;;;3.25;0.80;;;;;;;9.28;100.00;98563.13;5072605;28;20039;-35
2022/11/17 08:07:54;;;;;;;2.80;0.95;;;;;;;9.28;100.00;98557.72;5072651;28;20029;-34
2022/11/17 08:10:20;;;;;;;2.42;0.70;;;;;;;9.28;100.00;98565.81;5072787;28;20024;-35
2022/11/17 08:12:45;;;;;;;2.92;0.90;;;;;;;9.31;100.00;98567.13;5072299;28;20028;-35
2022/11/17 08:15:11;;;;;;;3.50;0.75;;;;;;;9.24;100.00;98554.78;5070746;28;20094;-35
2022/11/17 08:17:36;;;;;;;2.50;0.83;;;;;;;9.32;100.00;98564.19;5072465;28;20068;-35
2022/11/17 08:20:03;;;;;;;2.30;0.50;;;;;;;9.33;100.00;98573.88;5073024;28;20267;-35
2022/11/17 08:22:29;;;;;;;5.32;0.82;;;;;;;9.36;100.00;98578.69;5075842;28;20346;-35
2022/11/17 08:24:54;;;;;;;2.50;0.60;;;;;;;9.27;100.00;98583.88;5076064;28;20044;-35
2022/11/17 08:27:19;;;;;;;3.37;1.07;;;;;;;9.33;100.00;98584.66;5075339;28;20200;-35
2022/11/17 08:29:44;;;;;;;4.33;0.80;;;;;;;9.30;100.00;98577.13;5075310;28;20469;-35
2022/11/17 08:32:10;;;;;;;4.10;0.67;;;;;;;9.36;100.00;98581.41;5076095;28;20028;-35
2022/11/17 08:34:35;;;;;;;2.90;0.80;;;;;;;9.32;100.00;98588.47;5076022;28;20036;-35
2022/11/17 08:37:00;;;;;;;5.55;1.05;;;;;;;9.20;100.00;98577.19;5076199;28;20387;-34
2022/11/17 08:39:26;;;;;;;2.30;0.50;;;;;;;9.31;100.00;98600.31;5076210;28;20028;-34
2022/11/17 08:41:51;;;;;;;1.93;0.70;;;;;;;9.25;100.00;98593.34;5075554;28;20070;-34
2022/11/17 08:44:17;;;;;;;3.07;0.77;;;;;;;9.22;100.00;98588.47;5075888;28;20025;-35
2022/11/17 08:46:42;;;;;;;4.13;1.00;;;;;;;9.27;100.00;98600.06;5075566;28;20098;-35
2022/11/17 08:49:07;;;;;;;2.60;0.63;;;;;;;9.24;100.00;98614.09;5074392;28;20029;-35
2022/11/17 08:51:33;;;;;;;4.77;0.80;;;;;;;9.16;100.00;98590.41;5075669;28;20027;-35
2022/11/17 08:53:58;;;;;;;5.33;0.90;;;;;;;9.22;100.00;98612.75;5076139;28;20028;-35
2022/11/17 08:56:23;;;;;;;2.10;0.83;;;;;;;9.23;100.00;98614.38;5075820;28;20305;-34
2022/11/17 08:58:49;;;;;;;2.77;0.77;;;;;;;9.15;100.00;98607.66;5075818;28;20316;-35
2022/11/17 09:01:15;;;;;;;5.83;1.50;;;;;;;9.10;100.00;98593.41;5074473;28;20040;-35
2022/11/17 09:03:42;;;;;;;3.67;0.80;;;;;;;9.12;100.00;98604.69;5076260;28;20036;-35
2022/11/17 09:06:09;;;;;;;3.42;0.80;;;;;;;9.16;100.00;98622.75;5075683;28;20141;-34
2022/11/17 09:08:34;;;;;;;2.67;0.70;;;;;;;9.17;100.00;98626.25;5076174;28;20028;-34
2022/11/17 09:11:04;;;;;;;4.37;0.80;;;;;;;9.16;100.00;98622.75;5075933;28;20137;-34
2022/11/17 09:13:30;;;;;;;2.55;0.68;;;;;;;9.04;100.00;98611.50;5075462;28;20113;-34
2022/11/17 09:16:03;;;;;;;3.80;1.05;;;;;;;9.19;100.00;98634.88;5073833;28;20573;-35
2022/11/17 09:18:29;;;;;;;3.03;1.13;;;;;;;9.16;100.00;98627.34;5075238;28;20032;-35
2022/11/17 09:21:05;;;;;;;1.65;1.10;;;;;;;9.17;100.00;98632.44;5075394;28;20039;-34
2022/11/17 09:23:30;;;;;;;4.68;1.20;;;;;;;9.17;100.00;98632.44;5075063;28;20036;-34
2022/11/17 09:25:57;;;;;;;3.70;0.70;;;;;;;9.19;100.00;98641.09;5075096;28;20043;-34
2022/11/17 09:28:25;;;;;;;;;;;;;;;9.25;100.00;98641.88;5075517;28;20029;-34
2022/11/17 09:30:51;;;;;;;5.15;0.93;;;;;;;9.08;100.00;98630.59;5074657;28;20433;-34
2022/11/17 09:33:16;;;;;;;;;;;;;;;9.24;100.00;98648.34;5074275;28;20033;-34
2022/11/17 09:35:42;;;;;;;2.40;0.60;;;;;;;9.21;100.00;98649.69;5074485;28;19913;-34
2022/11/17 09:38:07;;;;;;;2.87;0.90;;;;;;;9.25;100.00;98656.16;5074336;28;20282;-34
2022/11/17 09:40:33;;;;;;;3.47;1.00;;;;;;;9.17;100.00;98647.81;5074721;28;20037;-34
2022/11/17 09:42:58;;;;;;;4.03;1.10;;;;;;;9.24;100.00;98653.75;5075006;28;20021;-34
2022/11/17 09:45:30;;;;;;;2.55;1.02;;;;;;;9.32;100.00;98663.13;5074963;28;20036;-34
2022/11/17 09:48:20;;;;;;;5.90;1.08;;;;;;;9.34;100.00;98672.59;5075180;28;20055;-34
2022/11/17 09:50:47;;;;;;;3.75;0.82;;;;;;;9.28;100.00;98658.31;5074821;28;20433;-34
2022/11/17 09:53:39;;;;;;;1.75;0.60;;;;;;;9.39;100.00;98672.56;5075296;28;20056;-34
2022/11/17 09:56:07;;;;;;;2.42;0.90;;;;;;;9.42;100.00;98674.72;5013076;28;20069;-34
2022/11/17 09:59:00;;;;;;;2.13;0.90;;;;;;;9.48;100.00;98676.31;5013135;28;20435;-34
2022/11/17 10:01:27;;;;;;;4.28;0.88;;;;;;;9.45;100.00;98679.56;5012569;28;20133;-34
2022/11/17 10:03:55;;;;;;;1.85;0.80;;;;;;;9.50;100.00;98679.53;5012348;28;20046;-34
2022/11/17 10:06:25;;;;;;;3.78;0.82;;;;;;;9.52;100.00;98680.06;5012192;28;20417;-35
2022/11/17 10:09:25;;;;;;;3.80;0.80;;;;;;;9.54;100.00;98687.88;5012522;28;20211;-35
2022/11/17 10:11:52;;;;;;;3.85;0.88;;;;;;;9.60;100.00;98684.06;5012599;28;20485;-35
2022/11/17 10:14:20;;;;;;;5.20;0.80;;;;;;;9.63;100.00;98688.91;5012669;28;20398;-35
2022/11/17 10:16:53;;;;;;;3.83;0.90;;;;;;;9.67;100.00;98692.69;5012002;28;20038;-35
2022/11/17 10:19:20;;;;;;;4.93;0.90;;;;;;;9.70;100.00;98691.31;5012420;28;20045;-35
2022/11/17 10:21:52;;;;;;;4.57;1.08;;;;;;;9.74;100.00;98700.47;5011927;28;20479;-35
2022/11/17 10:24:33;;;;;;;4.30;1.05;;;;;;;9.73;100.00;98683.47;5012214;28;20103;-35
2022/11/17 10:26:59;;;;;;;2.72;0.85;;;;;;;9.82;100.00;98699.91;5011744;28;20038;-35
2022/11/17 10:29:24;;;;;;;4.03;1.08;;;;;;;9.89;100.00;98697.69;5012210;28;20045;-35
2022/11/17 10:31:50;;;;;;;2.13;0.70;;;;;;;9.90;100.00;98707.41;5012742;28;20468;-35
2022/11/17 10:34:48;;;;;;;2.27;0.70;;;;;;;9.97;100.00;98710.63;5074020;28;20113;-35
2022/11/17 10:37:14;;;;;;;;;;;;;;;10.01;100.00;98710.88;4995979;28;20041;-35
2022/11/17 10:39:41;;;;;;;3.90;1.75;;;;;;;10.02;100.00;98718.69;5011873;28;20309;-35
2022/11/17 10:42:28;;;;;;;3.38;0.70;;;;;;;10.09;100.00;98712.16;5011599;28;20139;-35
2022/11/17 10:44:57;;;;;;;3.80;0.90;;;;;;;10.10;100.00;98719.16;5011249;28;20069;-35
2022/11/17 10:47:34;;;;;;;4.32;0.90;;;;;;;10.14;100.00;98718.34;5011564;28;20091;-35
2022/11/17 10:50:17;;;;;;;3.55;0.80;;;;;;;10.19;100.00;98731.00;5012184;28;20033;-35
2022/11/17 10:52:42;;;;;;;1.58;0.60;;;;;;;10.20;100.00;98725.34;5011437;28;20625;-35
2022/11/17 10:55:32;;;;;;;3.47;1.03;;;;;;;10.26;100.00;98734.25;5011643;28;20061;-35
2022/11/17 10:58:02;;;;;;;3.03;0.70;;;;;;;10.25;100.00;98729.94;5012091;28;20434;-35
2022/11/17 11:00:33;;;;;;;2.50;0.80;;;;;;;10.27;100.00;98730.44;5011195;28;20125;-35
2022/11/17 11:03:06;;;;;;;4.10;0.70;;;;;;;10.23;100.00;98730.16;5011430;28;20077;-35
2022/11/17 11:05:31;;;;;;;3.30;0.70;;;;;;;10.23;100.00;98734.75;5011650;28;20107;-35
2022/11/17 11:08:20;;;;;;;1.95;0.52;;;;;;;10.22;100.00;98735.84;5011501;28;20030;-35
2022/11/17 11:10:50;;;;;;;2.20;0.70;;;;;;;10.19;100.00;98745.31;4995464;28;20388;-35
2022/11/17 11:13:33;;;;;;;5.63;0.82;;;;;;;10.15;100.00;98741.56;5054180;28;20448;-35
2022/11/17 11:15:58;;;;;;;2.17;0.73;;;;;;;10.15;100.00;98743.44;5072437;28;20032;-35
2022/11/17 11:18:28;;;;;;;2.85;0.70;;;;;;;10.13;100.00;98740.22;5073155;28;20051;-35
2022/11/17 11:21:15;;;;;;;2.90;0.75;;;;;;;10.16;100.00;98750.47;5073577;28;20108;-35
2022/11/17 11:23:51;;;;;;;3.25;0.60;;;;;;;10.18;100.00;98756.41;5073623;28;20063;-35
2022/11/17 11:26:45;;;;;;;4.57;1.02;;;;;;;10.20;100.00;98762.31;5073609;28;20033;-35
2022/11/17 11:29:23;;;;;;;1.80;0.70;;;;;;;10.15;100.00;98748.84;5073494;28;20377;-35
2022/11/17 11:31:56;;;;;;;4.82;0.85;;;;;;;10.09;100.00;98733.75;5073497;28;20181;-35
2022/11/17 11:34:33;;;;;;;4.28;0.70;;;;;;;10.16;100.00;98756.69;5073614;28;20403;-35
2022/11/17 11:37:08;;;;;;;8.77;2.00;;;;;;;10.15;100.00;98754.25;5073543;28;20028;-35
2022/11/17 11:40:13;;;;;;;4.70;1.08;;;;;;;10.15;100.00;98760.47;5073325;28;20029;-35
2022/11/17 11:42:49;;;;;;;6.18;3.03;;;;;;;10.17;100.00;98768.28;5073405;28;20354;-35
2022/11/17 11:45:39;;;;;;;4.37;1.00;;;;;;;10.20;100.00;98767.72;5073568;28;20089;-35
2022/11/17 11:48:13;;;;;;;2.38;0.80;;;;;;;10.16;100.00;98774.78;5072350;28;20424;-35
2022/11/17 11:50:53;;;;;;;5.60;1.52;;;;;;;10.17;100.00;98781.81;5072777;28;20107;-35
2022/11/17 11:53:57;;;;;;;2.90;0.85;;;;;;;10.19;100.00;98780.41;5072724;28;20025;-35
2022/11/17 11:56:32;;;;;;;10.15;0.90;;;;;;;10.19;100.00;98782.31;5074530;28;20033;-35
2022/11/17 11:59:22;;;;;;;4.00;1.40;;;;;;;10.12;100.00;98771.03;5077705;28;20333;-35
2022/11/17 12:02:05;;;;;;;4.28;0.80;;;;;;;10.12;100.00;98779.13;5076811;28;20048;-35
2022/11/17 12:04:42;;;;;;;5.32;1.27;;;;;;;10.15;100.00;98794.75;5076034;28;20047;-35
2022/11/17 12:07:51;;;;;;;3.03;0.70;;;;;;;10.17;100.00;98787.19;5076381;28;20029;-35
2022/11/17 12:10:40;;;;;;;;;;;;;;;10.22;100.00;98800.69;5076974;28;20034;-35
2022/11/17 12:13:13;;;;;;;3.13;0.95;;;;;;;10.20;100.00;98800.97;5076764;28;19912;-35
2022/11/17 12:15:38;;;;;;;4.63;0.90;;;;;;;10.23;100.00;98791.47;5077315;28;20035;-35
2022/11/17 12:18:10;;;;;;;3.47;0.97;;;;;;;10.26;100.00;98793.66;5076404;28;20397;-35